sensor_id;sensor_type;location;lat;lon;timestamp;pressure;altitude;pressure_sealevel;temperature;humidity
49473;BME280;73594;50.944;6.950;2024-01-07T00:00:54;101039.78;;;2.03;100.00
49473;BME280;73594;50.944;6.950;2024-01-07T00:03:19;101043.84;;;1.99;100.00
49473;BME280;73594;50.944;6.950;2024-01-07T00:05:45;101039.78;;;2.03;100.00
49473;BME280;73594;50.944;6.950;2024-01-07T00:08:10;101042.66;;;2.01;100.00
49473;BME280;73594;50.944;6.950;2024-01-07T00:10:35;101050.88;;;2.06;100.00
49473;BME280;73594;50.944;6.950;2024-01-07T00:13:01;101047.59;;;2.04;100.00
49473;BME280;73594;50.944;6.950;2024-01-07T00:15:26;101056.41;;;2.05;100.00
49473;BME280;73594;50.944;6.950;2024-01-07T00:17:52;101063.97;;;2.01;100.00
49473;BME280;73594;50.944;6.950;2024-01-07T00:20:17;101058.44;;;2.03;100.00
49473;BME280;73594;50.944;6.950;2024-01-07T00:22:42;101051.38;;;1.88;100.00
49473;BME280;73594;50.944;6.950;2024-01-07T00:25:08;101056.16;;;2.00;100.00
49473;BME280;73594;50.944;6.950;2024-01-07T00:27:33;101056.38;;;1.98;100.00
49473;BME280;73594;50.944;6.950;2024-01-07T00:29:58;101058.69;;;2.08;100.00
49473;BME280;73594;50.944;6.950;2024-01-07T00:32:24;101063.00;;;2.09;100.00
49473;BME280;73594;50.944;6.950;2024-01-07T00:34:49;101054.56;;;2.05;100.00
49473;BME280;73594;50.944;6.950;2024-01-07T00:37:14;101056.25;;;2.13;100.00
49473;BME280;73594;50.944;6.950;2024-01-07T00:39:41;101062.75;;;2.04;100.00
49473;BME280;73594;50.944;6.950;2024-01-07T00:42:09;101056.81;;;2.02;100.00
49473;BME280;73594;50.944;6.950;2024-01-07T00:44:34;101068.47;;;2.01;100.00
49473;BME280;73594;50.944;6.950;2024-01-07T00:46:59;101066.00;;;1.99;100.00
49473;BME280;73594;50.944;6.950;2024-01-07T00:49:25;101066.00;;;1.99;100.00
49473;BME280;73594;50.944;6.950;2024-01-07T00:52:09;101072.50;;;1.90;100.00
49473;BME280;73594;50.944;6.950;2024-01-07T00:54:36;101071.28;;;1.93;100.00
49473;BME280;73594;50.944;6.950;2024-01-07T00:57:01;101072.13;;;1.93;100.00
49473;BME280;73594;50.944;6.950;2024-01-07T00:59:28;101078.66;;;1.91;100.00
49473;BME280;73594;50.944;6.950;2024-01-07T01:01:54;101080.94;;;1.94;100.00
49473;BME280;73594;50.944;6.950;2024-01-07T01:04:20;101079.09;;;1.94;100.00
49473;BME280;73594;50.944;6.950;2024-01-07T01:06:45;101084.47;;;2.01;100.00
49473;BME280;73594;50.944;6.950;2024-01-07T01:09:10;101076.47;;;2.01;100.00
49473;BME280;73594;50.944;6.950;2024-01-07T01:11:36;101081.44;;;2.04;100.00
49473;BME280;73594;50.944;6.950;2024-01-07T01:14:01;101080.75;;;1.95;100.00
49473;BME280;73594;50.944;6.950;2024-01-07T01:16:26;101080.16;;;2.00;100.00
49473;BME280;73594;50.944;6.950;2024-01-07T01:18:52;101094.66;;;1.91;100.00
49473;BME280;73594;50.944;6.950;2024-01-07T01:21:17;101088.94;;;1.94;100.00
49473;BME280;73594;50.944;6.950;2024-01-07T01:23:43;101095.28;;;1.93;100.00
49473;BME280;73594;50.944;6.950;2024-01-07T01:26:09;101101.25;;;1.95;100.00
49473;BME280;73594;50.944;6.950;2024-01-07T01:28:34;101097.63;;;2.02;100.00
49473;BME280;73594;50.944;6.950;2024-01-07T01:30:59;101088.84;;;2.08;100.00
49473;BME280;73594;50.944;6.950;2024-01-07T01:33:25;101101.34;;;2.08;100.00
49473;BME280;73594;50.944;6.950;2024-01-07T01:35:50;101101.16;;;2.09;100.00
49473;BME280;73594;50.944;6.950;2024-01-07T01:38:16;101098.31;;;2.11;100.00
49473;BME280;73594;50.944;6.950;2024-01-07T01:41:00;101098.94;;;2.13;100.00
49473;BME280;73594;50.944;6.950;2024-01-07T01:43:44;101095.38;;;2.06;100.00
49473;BME280;73594;50.944;6.950;2024-01-07T01:46:11;101097.47;;;2.10;100.00
49473;BME280;73594;50.944;6.950;2024-01-07T01:48:37;101100.97;;;2.11;100.00
49473;BME280;73594;50.944;6.950;2024-01-07T01:51:03;101104.78;;;2.02;100.00
49473;BME280;73594;50.944;6.950;2024-01-07T01:53:28;101102.63;;;2.12;100.00
49473;BME280;73594;50.944;6.950;2024-01-07T01:55:55;101107.50;;;2.08;100.00
49473;BME280;73594;50.944;6.950;2024-01-07T01:58:23;101110.63;;;2.12;100.00
49473;BME280;73594;50.944;6.950;2024-01-07T02:00:48;101111.63;;;2.11;100.00
49473;BME280;73594;50.944;6.950;2024-01-07T02:03:16;101110.56;;;2.05;100.00
49473;BME280;73594;50.944;6.950;2024-01-07T02:06:00;101115.91;;;2.05;100.00
49473;BME280;73594;50.944;6.950;2024-01-07T02:08:26;101109.75;;;2.05;100.00
49473;BME280;73594;50.944;6.950;2024-01-07T02:10:52;101115.72;;;2.07;100.00
49473;BME280;73594;50.944;6.950;2024-01-07T02:13:18;101121.41;;;2.04;100.00
49473;BME280;73594;50.944;6.950;2024-01-07T02:15:43;101124.91;;;2.04;100.00
49473;BME280;73594;50.944;6.950;2024-01-07T02:18:09;101125.94;;;2.03;100.00
49473;BME280;73594;50.944;6.950;2024-01-07T02:20:34;101119.00;;;2.09;100.00
49473;BME280;73594;50.944;6.950;2024-01-07T02:23:01;101130.31;;;2.11;100.00
49473;BME280;73594;50.944;6.950;2024-01-07T02:25:27;101130.06;;;2.06;100.00
49473;BME280;73594;50.944;6.950;2024-01-07T02:27:52;101133.16;;;2.09;100.00
49473;BME280;73594;50.944;6.950;2024-01-07T02:30:17;101135.63;;;2.11;100.00
49473;BME280;73594;50.944;6.950;2024-01-07T02:32:43;101139.31;;;2.10;100.00
49473;BME280;73594;50.944;6.950;2024-01-07T02:35:08;101133.97;;;2.10;100.00
49473;BME280;73594;50.944;6.950;2024-01-07T02:37:34;101141.97;;;2.10;100.00
49473;BME280;73594;50.944;6.950;2024-01-07T02:39:59;101135.19;;;2.07;100.00
49473;BME280;73594;50.944;6.950;2024-01-07T02:42:25;101137.88;;;2.07;100.00
49473;BME280;73594;50.944;6.950;2024-01-07T02:44:50;101140.66;;;1.99;100.00
49473;BME280;73594;50.944;6.950;2024-01-07T02:47:15;101146.44;;;2.03;100.00
49473;BME280;73594;50.944;6.950;2024-01-07T02:49:59;101139.06;;;2.05;100.00
49473;BME280;73594;50.944;6.950;2024-01-07T02:52:24;101146.06;;;2.06;100.00
49473;BME280;73594;50.944;6.950;2024-01-07T02:54:50;101146.06;;;2.06;100.00
49473;BME280;73594;50.944;6.950;2024-01-07T02:57:15;101149.16;;;2.09;100.00
49473;BME280;73594;50.944;6.950;2024-01-07T02:59:41;101154.09;;;2.12;100.00
49473;BME280;73594;50.944;6.950;2024-01-07T03:02:06;101146.69;;;2.08;100.00
49473;BME280;73594;50.944;6.950;2024-01-07T03:04:31;101151.38;;;2.06;100.00
49473;BME280;73594;50.944;6.950;2024-01-07T03:06:56;101150.88;;;1.96;100.00
49473;BME280;73594;50.944;6.950;2024-01-07T03:09:22;101162.38;;;1.96;100.00
49473;BME280;73594;50.944;6.950;2024-01-07T03:12:06;101159.91;;;1.95;100.00
49473;BME280;73594;50.944;6.950;2024-01-07T03:14:31;101159.50;;;1.98;100.00
49473;BME280;73594;50.944;6.950;2024-01-07T03:16:57;101155.84;;;1.99;100.00
49473;BME280;73594;50.944;6.950;2024-01-07T03:19:22;101163.59;;;1.94;100.00
49473;BME280;73594;50.944;6.950;2024-01-07T03:22:07;101160.47;;;1.90;100.00
49473;BME280;73594;50.944;6.950;2024-01-07T03:24:33;101167.47;;;1.91;100.00
49473;BME280;73594;50.944;6.950;2024-01-07T03:26:58;101166.81;;;1.89;100.00
49473;BME280;73594;50.944;6.950;2024-01-07T03:29:23;101167.25;;;1.93;100.00
49473;BME280;73594;50.944;6.950;2024-01-07T03:31:49;101180.22;;;1.96;100.00
49473;BME280;73594;50.944;6.950;2024-01-07T03:34:15;101169.50;;;1.89;100.00
49473;BME280;73594;50.944;6.950;2024-01-07T03:36:41;101170.69;;;1.86;100.00
49473;BME280;73594;50.944;6.950;2024-01-07T03:39:06;101171.13;;;1.90;100.00
49473;BME280;73594;50.944;6.950;2024-01-07T03:41:31;101176.66;;;1.88;100.00
49473;BME280;73594;50.944;6.950;2024-01-07T03:43:57;101175.66;;;1.90;100.00
49473;BME280;73594;50.944;6.950;2024-01-07T03:46:22;101174.53;;;1.84;100.00
49473;BME280;73594;50.944;6.950;2024-01-07T03:48:47;101183.19;;;1.86;100.00
49473;BME280;73594;50.944;6.950;2024-01-07T03:51:13;101173.34;;;1.86;100.00
49473;BME280;73594;50.944;6.950;2024-01-07T03:53:38;101174.72;;;1.82;100.00
49473;BME280;73594;50.944;6.950;2024-01-07T03:56:04;101170.69;;;1.86;100.00
49473;BME280;73594;50.944;6.950;2024-01-07T03:58:29;101174.28;;;1.79;100.00
49473;BME280;73594;50.944;6.950;2024-01-07T04:00:55;101180.63;;;1.78;100.00
49473;BME280;73594;50.944;6.950;2024-01-07T04:03:20;101184.69;;;1.74;100.00
49473;BME280;73594;50.944;6.950;2024-01-07T04:06:06;101182.19;;;1.72;100.00
49473;BME280;73594;50.944;6.950;2024-01-07T04:08:33;101180.94;;;1.68;100.00
49473;BME280;73594;50.944;6.950;2024-01-07T04:10:58;101186.72;;;1.72;100.00
49473;BME280;73594;50.944;6.950;2024-01-07T04:13:23;101184.22;;;1.70;100.00
49473;BME280;73594;50.944;6.950;2024-01-07T04:15:49;101194.31;;;1.75;100.00
49473;BME280;73594;50.944;6.950;2024-01-07T04:18:14;101190.84;;;1.74;100.00
49473;BME280;73594;50.944;6.950;2024-01-07T04:20:39;101196.91;;;1.68;100.00
49473;BME280;73594;50.944;6.950;2024-01-07T04:23:05;101194.25;;;1.68;100.00
49473;BME280;73594;50.944;6.950;2024-01-07T04:25:30;101203.06;;;1.69;100.00
49473;BME280;73594;50.944;6.950;2024-01-07T04:27:55;101202.69;;;1.72;100.00
49473;BME280;73594;50.944;6.950;2024-01-07T04:30:21;101206.56;;;1.69;100.00
49473;BME280;73594;50.944;6.950;2024-01-07T04:33:05;101209.78;;;1.65;100.00
49473;BME280;73594;50.944;6.950;2024-01-07T04:35:30;101207.19;;;1.71;100.00
49473;BME280;73594;50.944;6.950;2024-01-07T04:37:55;101206.38;;;1.71;100.00
49473;BME280;73594;50.944;6.950;2024-01-07T04:40:21;101209.88;;;1.71;100.00
49473;BME280;73594;50.944;6.950;2024-01-07T04:42:46;101216.22;;;1.70;100.00
49473;BME280;73594;50.944;6.950;2024-01-07T04:45:11;101204.78;;;1.76;100.00
49473;BME280;73594;50.944;6.950;2024-01-07T04:47:55;101217.03;;;1.71;100.00
49473;BME280;73594;50.944;6.950;2024-01-07T04:50:21;101212.47;;;1.65;100.00
49473;BME280;73594;50.944;6.950;2024-01-07T04:52:46;101215.50;;;1.62;100.00
49473;BME280;73594;50.944;6.950;2024-01-07T04:55:12;101222.47;;;1.63;100.00
49473;BME280;73594;50.944;6.950;2024-01-07T04:57:37;101220.56;;;1.56;100.00
49473;BME280;73594;50.944;6.950;2024-01-07T05:00:03;101218.16;;;1.47;100.00
49473;BME280;73594;50.944;6.950;2024-01-07T05:02:47;101224.25;;;1.55;100.00
49473;BME280;73594;50.944;6.950;2024-01-07T05:05:13;101226.06;;;1.55;100.00
49473;BME280;73594;50.944;6.950;2024-01-07T05:07:38;101224.25;;;1.55;100.00
49473;BME280;73594;50.944;6.950;2024-01-07T05:10:04;101230.66;;;1.61;100.00
49473;BME280;73594;50.944;6.950;2024-01-07T05:12:30;101248.03;;;1.57;100.00
49473;BME280;73594;50.944;6.950;2024-01-07T05:14:55;101247.38;;;1.55;100.00
49473;BME280;73594;50.944;6.950;2024-01-07T05:17:20;101241.25;;;1.54;100.00
49473;BME280;73594;50.944;6.950;2024-01-07T05:20:05;101247.38;;;1.40;100.00
49473;BME280;73594;50.944;6.950;2024-01-07T05:22:50;101244.81;;;1.47;100.00
49473;BME280;73594;50.944;6.950;2024-01-07T05:25:17;101261.47;;;1.49;100.00
49473;BME280;73594;50.944;6.950;2024-01-07T05:28:01;101252.59;;;1.48;100.00
49473;BME280;73594;50.944;6.950;2024-01-07T05:30:45;101251.97;;;1.46;100.00
49473;BME280;73594;50.944;6.950;2024-01-07T05:33:10;101259.78;;;1.48;100.00
49473;BME280;73594;50.944;6.950;2024-01-07T05:35:35;101256.94;;;1.49;100.00
49473;BME280;73594;50.944;6.950;2024-01-07T05:38:01;101260.44;;;1.50;100.00
49473;BME280;73594;50.944;6.950;2024-01-07T05:40:26;101265.28;;;1.46;100.00
49473;BME280;73594;50.944;6.950;2024-01-07T05:42:52;101266.59;;;1.50;100.00
49473;BME280;73594;50.944;6.950;2024-01-07T05:45:17;101266.03;;;1.55;100.00
49473;BME280;73594;50.944;6.950;2024-01-07T05:47:43;101276.59;;;1.63;100.00
49473;BME280;73594;50.944;6.950;2024-01-07T05:50:08;101275.13;;;1.61;100.00
49473;BME280;73594;50.944;6.950;2024-01-07T05:52:34;101283.41;;;1.66;100.00
49473;BME280;73594;50.944;6.950;2024-01-07T05:54:59;101276.97;;;1.60;100.00
49473;BME280;73594;50.944;6.950;2024-01-07T05:57:24;101278.78;;;1.45;100.00
49473;BME280;73594;50.944;6.950;2024-01-07T05:59:50;101284.06;;;1.53;100.00
49473;BME280;73594;50.944;6.950;2024-01-07T06:02:16;101277.97;;;1.59;100.00
49473;BME280;73594;50.944;6.950;2024-01-07T06:04:42;101287.25;;;1.48;100.00
49473;BME280;73594;50.944;6.950;2024-01-07T06:07:08;101281.91;;;1.48;100.00
49473;BME280;73594;50.944;6.950;2024-01-07T06:09:51;101282.28;;;1.45;100.00
49473;BME280;73594;50.944;6.950;2024-01-07T06:12:17;101288.44;;;1.46;100.00
49473;BME280;73594;50.944;6.950;2024-01-07T06:15:01;101288.81;;;1.43;100.00
49473;BME280;73594;50.944;6.950;2024-01-07T06:17:45;101305.81;;;1.42;100.00
49473;BME280;73594;50.944;6.950;2024-01-07T06:20:12;101303.59;;;1.45;100.00
49473;BME280;73594;50.944;6.950;2024-01-07T06:22:37;101302.31;;;1.41;100.00
49473;BME280;73594;50.944;6.950;2024-01-07T06:25:04;101303.41;;;1.47;100.00
49473;BME280;73594;50.944;6.950;2024-01-07T06:27:29;101313.59;;;1.43;100.00
49473;BME280;73594;50.944;6.950;2024-01-07T06:29:55;101312.97;;;1.41;100.00
49473;BME280;73594;50.944;6.950;2024-01-07T06:32:20;101327.28;;;1.40;100.00
49473;BME280;73594;50.944;6.950;2024-01-07T06:34:46;101336.84;;;1.35;100.00
49473;BME280;73594;50.944;6.950;2024-01-07T06:37:12;101344.47;;;1.38;100.00
49473;BME280;73594;50.944;6.950;2024-01-07T06:39:37;101347.88;;;1.32;100.00
49473;BME280;73594;50.944;6.950;2024-01-07T06:42:03;101343.81;;;1.36;100.00
49473;BME280;73594;50.944;6.950;2024-01-07T06:44:29;101351.34;;;1.32;100.00
49473;BME280;73594;50.944;6.950;2024-01-07T08:31:19;101498.63;;;0.87;100.00
49473;BME280;73594;50.944;6.950;2024-01-07T08:33:44;101497.09;;;0.92;100.00
49473;BME280;73594;50.944;6.950;2024-01-07T08:36:09;101508.56;;;0.93;100.00
49473;BME280;73594;50.944;6.950;2024-01-07T08:38:35;101518.69;;;0.98;100.00
49473;BME280;73594;50.944;6.950;2024-01-07T08:41:00;101519.47;;;1.06;100.00
49473;BME280;73594;50.944;6.950;2024-01-07T08:43:26;101528.63;;;1.04;100.00
49473;BME280;73594;50.944;6.950;2024-01-07T08:45:51;101533.63;;;1.07;100.00
49473;BME280;73594;50.944;6.950;2024-01-07T09:05:23;101547.03;;;0.90;100.00
49473;BME280;73594;50.944;6.950;2024-01-07T09:07:49;101550.16;;;0.94;100.00
49473;BME280;73594;50.944;6.950;2024-01-07T09:10:15;101548.16;;;0.96;100.00
49473;BME280;73594;50.944;6.950;2024-01-07T09:12:40;101556.78;;;0.98;100.00
49473;BME280;73594;50.944;6.950;2024-01-07T09:15:06;101559.41;;;1.06;100.00
49473;BME280;73594;50.944;6.950;2024-01-07T09:17:36;101558.59;;;1.06;100.00
49473;BME280;73594;50.944;6.950;2024-01-07T09:20:06;101556.41;;;1.09;100.00
49473;BME280;73594;50.944;6.950;2024-01-07T09:22:33;101554.75;;;1.08;100.00
49473;BME280;73594;50.944;6.950;2024-01-07T09:25:00;101564.56;;;1.08;100.00
49473;BME280;73594;50.944;6.950;2024-01-07T09:27:26;101563.44;;;1.02;100.00
49473;BME280;73594;50.944;6.950;2024-01-07T09:29:51;101577.75;;;1.01;100.00
49473;BME280;73594;50.944;6.950;2024-01-07T09:32:17;101579.22;;;1.04;100.00
49473;BME280;73594;50.944;6.950;2024-01-07T09:34:42;101582.72;;;1.04;100.00
49473;BME280;73594;50.944;6.950;2024-01-07T09:37:08;101583.53;;;1.05;100.00
49473;BME280;73594;50.944;6.950;2024-01-07T09:39:38;101576.75;;;1.02;100.00
49473;BME280;73594;50.944;6.950;2024-01-07T09:42:04;101580.75;;;0.98;100.00
49473;BME280;73594;50.944;6.950;2024-01-07T09:44:30;101589.03;;;1.03;100.00
49473;BME280;73594;50.944;6.950;2024-01-07T09:46:58;101595.25;;;0.96;99.48
49473;BME280;73594;50.944;6.950;2024-01-07T09:49:24;101596.06;;;0.96;99.81
49473;BME280;73594;50.944;6.950;2024-01-07T09:51:50;101594.25;;;0.97;98.72
49473;BME280;73594;50.944;6.950;2024-01-07T09:54:20;101583.75;;;0.95;99.05
49473;BME280;73594;50.944;6.950;2024-01-07T09:56:50;101589.41;;;1.00;98.21
49473;BME280;73594;50.944;6.950;2024-01-07T09:59:18;101589.34;;;1.08;98.35
49473;BME280;73594;50.944;6.950;2024-01-07T10:01:44;101595.00;;;1.13;97.84
49473;BME280;73594;50.944;6.950;2024-01-07T10:04:10;101594.03;;;1.06;97.85
49473;BME280;73594;50.944;6.950;2024-01-07T10:06:36;101596.50;;;1.08;97.70
49473;BME280;73594;50.944;6.950;2024-01-07T10:09:03;101591.72;;;1.03;97.82
49473;BME280;73594;50.944;6.950;2024-01-07T10:11:28;101599.66;;;1.11;97.42
49473;BME280;73594;50.944;6.950;2024-01-07T10:13:54;101606.31;;;1.15;98.21
49473;BME280;73594;50.944;6.950;2024-01-07T10:16:19;101603.13;;;1.20;98.69
49473;BME280;73594;50.944;6.950;2024-01-07T10:18:45;101604.97;;;1.19;98.33
49473;BME280;73594;50.944;6.950;2024-01-07T10:21:10;101618.28;;;1.19;97.96
49473;BME280;73594;50.944;6.950;2024-01-07T10:23:35;101612.72;;;1.29;99.08
49473;BME280;73594;50.944;6.950;2024-01-07T10:26:00;101612.06;;;1.27;98.16
49473;BME280;73594;50.944;6.950;2024-01-07T10:28:27;101614.13;;;1.17;98.01
49473;BME280;73594;50.944;6.950;2024-01-07T10:30:53;101611.66;;;1.15;99.64
49473;BME280;73594;50.944;6.950;2024-01-07T10:33:18;101610.41;;;1.26;99.00
49473;BME280;73594;50.944;6.950;2024-01-07T10:35:51;101622.59;;;1.20;98.75
49473;BME280;73594;50.944;6.950;2024-01-07T10:38:17;101621.78;;;1.20;99.39
49473;BME280;73594;50.944;6.950;2024-01-07T10:40:43;101626.44;;;1.18;99.21
49473;BME280;73594;50.944;6.950;2024-01-07T10:43:10;101620.13;;;1.11;99.02
49473;BME280;73594;50.944;6.950;2024-01-07T10:45:35;101634.59;;;1.16;98.98
49473;BME280;73594;50.944;6.950;2024-01-07T10:48:04;101624.97;;;1.15;97.60
49473;BME280;73594;50.944;6.950;2024-01-07T10:50:33;101621.16;;;1.02;97.32
49473;BME280;73594;50.944;6.950;2024-01-07T10:53:04;101630.28;;;1.07;97.23
49473;BME280;73594;50.944;6.950;2024-01-07T10:55:34;101631.59;;;1.11;97.41
49473;BME280;73594;50.944;6.950;2024-01-07T10:58:03;101630.69;;;0.96;97.38
49473;BME280;73594;50.944;6.950;2024-01-07T11:00:30;101628.38;;;0.93;97.21
49473;BME280;73594;50.944;6.950;2024-01-07T11:03:40;101637.97;;;1.02;97.28
49473;BME280;73594;50.944;6.950;2024-01-07T11:06:24;101630.50;;;0.98;97.00
49473;BME280;73594;50.944;6.950;2024-01-07T11:08:59;101644.78;;;1.05;96.90
49473;BME280;73594;50.944;6.950;2024-01-07T11:11:29;101640.81;;;1.01;96.24
49473;BME280;73594;50.944;6.950;2024-01-07T11:13:57;101638.97;;;1.01;97.10
49473;BME280;73594;50.944;6.950;2024-01-07T11:16:42;101638.59;;;1.20;94.75
49473;BME280;73594;50.944;6.950;2024-01-07T11:19:07;101639.50;;;1.36;94.65
49473;BME280;73594;50.944;6.950;2024-01-07T11:21:33;101638.91;;;1.48;92.85
49473;BME280;73594;50.944;6.950;2024-01-07T11:23:58;101647.78;;;1.49;93.46
49473;BME280;73594;50.944;6.950;2024-01-07T11:26:24;101651.50;;;1.63;94.71
49473;BME280;73594;50.944;6.950;2024-01-07T11:28:54;101648.66;;;1.64;92.67
49473;BME280;73594;50.944;6.950;2024-01-07T11:31:44;101650.09;;;1.44;92.03
49473;BME280;73594;50.944;6.950;2024-01-07T11:34:10;101649.66;;;1.32;93.70
49473;BME280;73594;50.944;6.950;2024-01-07T11:36:38;101652.34;;;1.32;92.86
49473;BME280;73594;50.944;6.950;2024-01-07T11:39:04;101651.19;;;1.27;93.19
49473;BME280;73594;50.944;6.950;2024-01-07T11:41:52;101655.22;;;1.22;93.00
49473;BME280;73594;50.944;6.950;2024-01-07T11:44:37;101655.91;;;1.08;92.88
49473;BME280;73594;50.944;6.950;2024-01-07T11:47:23;101659.09;;;1.12;93.34
49473;BME280;73594;50.944;6.950;2024-01-07T11:50:09;101656.91;;;1.07;94.12
49473;BME280;73594;50.944;6.950;2024-01-07T11:52:54;101654.09;;;1.09;94.41
49473;BME280;73594;50.944;6.950;2024-01-07T11:55:40;101660.59;;;1.14;94.03
49473;BME280;73594;50.944;6.950;2024-01-07T11:58:06;101661.28;;;1.00;94.31
49473;BME280;73594;50.944;6.950;2024-01-07T12:00:35;101659.28;;;1.02;94.23
49473;BME280;73594;50.944;6.950;2024-01-07T12:03:00;101665.44;;;1.03;93.68
49473;BME280;73594;50.944;6.950;2024-01-07T12:05:29;101665.63;;;0.93;93.29
49473;BME280;73594;50.944;6.950;2024-01-07T12:07:55;101671.50;;;0.80;94.17
49473;BME280;73594;50.944;6.950;2024-01-07T12:10:23;101667.63;;;0.91;94.38
49473;BME280;73594;50.944;6.950;2024-01-07T12:12:49;101667.63;;;0.91;93.79
49473;BME280;73594;50.944;6.950;2024-01-07T12:15:16;101672.13;;;0.90;93.17
49473;BME280;73594;50.944;6.950;2024-01-07T12:17:42;101670.59;;;0.96;94.23
49473;BME280;73594;50.944;6.950;2024-01-07T12:20:08;101670.94;;;0.93;92.91
49473;BME280;73594;50.944;6.950;2024-01-07T12:22:38;101672.81;;;0.84;93.37
49473;BME280;73594;50.944;6.950;2024-01-07T12:25:05;101679.31;;;0.82;93.43
49473;BME280;73594;50.944;6.950;2024-01-07T12:27:31;101676.31;;;0.77;93.40
49473;BME280;73594;50.944;6.950;2024-01-07T12:29:59;101679.97;;;0.84;93.62
49473;BME280;73594;50.944;6.950;2024-01-07T12:32:29;101676.81;;;0.80;92.71
49473;BME280;73594;50.944;6.950;2024-01-07T12:34:59;101676.47;;;0.83;92.70
49473;BME280;73594;50.944;6.950;2024-01-07T12:37:27;101682.13;;;0.88;92.70
49473;BME280;73594;50.944;6.950;2024-01-07T12:39:56;101677.28;;;0.92;92.51
49473;BME280;73594;50.944;6.950;2024-01-07T12:42:31;101678.53;;;1.20;92.65
49473;BME280;73594;50.944;6.950;2024-01-07T12:44:56;101674.03;;;1.21;90.12
49473;BME280;73594;50.944;6.950;2024-01-07T12:47:22;101674.00;;;1.29;90.91
49473;BME280;73594;50.944;6.950;2024-01-07T12:49:48;101686.00;;;1.25;90.88
49473;BME280;73594;50.944;6.950;2024-01-07T12:52:14;101687.16;;;1.22;91.06
49473;BME280;73594;50.944;6.950;2024-01-07T12:54:39;101674.84;;;1.21;91.02
49473;BME280;73594;50.944;6.950;2024-01-07T12:57:04;101690.53;;;1.08;91.21
49473;BME280;73594;50.944;6.950;2024-01-07T12:59:30;101710.00;;;1.09;90.75
49473;BME280;73594;50.944;6.950;2024-01-07T13:01:55;101716.06;;;0.86;90.77
49473;BME280;73594;50.944;6.950;2024-01-07T13:04:21;101697.63;;;0.77;90.93
49473;BME280;73594;50.944;6.950;2024-01-07T13:06:46;101702.25;;;0.83;91.02
49473;BME280;73594;50.944;6.950;2024-01-07T13:09:12;101716.56;;;0.74;90.38
49473;BME280;73594;50.944;6.950;2024-01-07T13:11:37;101708.25;;;0.69;90.89
49473;BME280;73594;50.944;6.950;2024-01-07T13:14:03;101717.91;;;0.70;90.36
49473;BME280;73594;50.944;6.950;2024-01-07T13:16:28;101718.56;;;0.63;89.45
49473;BME280;73594;50.944;6.950;2024-01-07T13:18:54;101713.06;;;0.65;89.79
49473;BME280;73594;50.944;6.950;2024-01-07T13:21:20;101730.22;;;0.54;89.50
49473;BME280;73594;50.944;6.950;2024-01-07T13:23:45;101724.75;;;0.48;89.59
49473;BME280;73594;50.944;6.950;2024-01-07T13:26:11;101750.34;;;0.57;89.33
49473;BME280;73594;50.944;6.950;2024-01-07T13:28:36;101751.66;;;0.53;88.18
49473;BME280;73594;50.944;6.950;2024-01-07T13:31:02;101745.69;;;0.51;88.42
49473;BME280;73594;50.944;6.950;2024-01-07T13:33:29;101748.84;;;0.46;88.34
49473;BME280;73594;50.944;6.950;2024-01-07T13:35:54;101742.38;;;0.49;87.25
49473;BME280;73594;50.944;6.950;2024-01-07T13:38:20;101748.19;;;0.44;86.06
49473;BME280;73594;50.944;6.950;2024-01-07T13:40:45;101745.84;;;0.49;86.80
49473;BME280;73594;50.944;6.950;2024-01-07T13:43:11;101743.19;;;0.49;85.32
49473;BME280;73594;50.944;6.950;2024-01-07T13:45:36;101763.16;;;0.53;86.86
49473;BME280;73594;50.944;6.950;2024-01-07T13:48:01;101753.66;;;0.59;85.71
49473;BME280;73594;50.944;6.950;2024-01-07T13:50:28;101760.97;;;0.57;86.28
49473;BME280;73594;50.944;6.950;2024-01-07T13:52:53;101763.63;;;0.65;87.00
49473;BME280;73594;50.944;6.950;2024-01-07T13:55:19;101771.13;;;0.53;85.79
49473;BME280;73594;50.944;6.950;2024-01-07T13:57:44;101760.81;;;0.42;86.61
49473;BME280;73594;50.944;6.950;2024-01-07T14:00:10;101761.81;;;0.41;86.06
49473;BME280;73594;50.944;6.950;2024-01-07T14:02:39;101774.56;;;0.29;86.50
49473;BME280;73594;50.944;6.950;2024-01-07T14:05:06;101775.91;;;0.34;86.93
49473;BME280;73594;50.944;6.950;2024-01-07T14:07:32;101790.38;;;0.31;85.38
49473;BME280;73594;50.944;6.950;2024-01-07T14:09:59;101786.72;;;0.24;85.43
49473;BME280;73594;50.944;6.950;2024-01-07T14:12:24;101796.50;;;0.23;85.40
49473;BME280;73594;50.944;6.950;2024-01-07T14:14:50;101799.31;;;0.14;85.19
49473;BME280;73594;50.944;6.950;2024-01-07T14:17:15;101798.16;;;0.08;86.13
49473;BME280;73594;50.944;6.950;2024-01-07T14:19:41;101801.63;;;0.09;86.44
49473;BME280;73594;50.944;6.950;2024-01-07T14:22:09;101819.22;;;0.02;85.77
49473;BME280;73594;50.944;6.950;2024-01-07T14:24:34;101818.19;;;-0.06;86.63
49473;BME280;73594;50.944;6.950;2024-01-07T14:27:00;101825.47;;;-0.16;85.60
49473;BME280;73594;50.944;6.950;2024-01-07T14:29:25;101829.78;;;-0.15;85.27
49473;BME280;73594;50.944;6.950;2024-01-07T14:31:50;101844.03;;;-0.24;83.71
49473;BME280;73594;50.944;6.950;2024-01-07T14:34:16;101849.63;;;-0.35;83.16
49473;BME280;73594;50.944;6.950;2024-01-07T14:36:41;101852.91;;;-0.41;82.48
49473;BME280;73594;50.944;6.950;2024-01-07T14:39:09;101851.50;;;-0.53;81.35
49473;BME280;73594;50.944;6.950;2024-01-07T14:41:35;101856.13;;;-0.55;81.22
49473;BME280;73594;50.944;6.950;2024-01-07T14:44:01;101851.50;;;-0.53;81.45
49473;BME280;73594;50.944;6.950;2024-01-07T14:46:45;101857.66;;;-0.53;80.21
49473;BME280;73594;50.944;6.950;2024-01-07T14:49:10;101864.09;;;-0.55;80.42
49473;BME280;73594;50.944;6.950;2024-01-07T14:51:35;101872.97;;;-0.73;79.62
49473;BME280;73594;50.944;6.950;2024-01-07T14:54:02;101878.28;;;-0.73;79.62
49473;BME280;73594;50.944;6.950;2024-01-07T14:56:28;101876.06;;;-0.77;79.89